sensor_id;sensor_type;location;lat;lon;timestamp;pressure;altitude;pressure_sealevel;temperature;humidity
75219;BME280;63801;49.414;19.474;2023-04-24T00:00:28;93109.44;;;7.19;57.97
75219;BME280;63801;49.414;19.474;2023-04-24T00:02:28;93109.00;;;7.17;57.93
75219;BME280;63801;49.414;19.474;2023-04-24T00:04:29;93101.22;;;7.12;57.93
75219;BME280;63801;49.414;19.474;2023-04-24T00:06:30;93113.72;;;7.08;58.39
75219;BME280;63801;49.414;19.474;2023-04-24T00:08:34;93102.91;;;7.05;58.05
75219;BME280;63801;49.414;19.474;2023-04-24T00:10:35;93102.03;;;7.01;58.28
75219;BME280;63801;49.414;19.474;2023-04-24T00:12:36;93087.13;;;6.88;58.51
75219;BME280;63801;49.414;19.474;2023-04-24T00:14:36;93093.03;;;6.93;58.35
75219;BME280;63801;49.414;19.474;2023-04-24T00:16:37;93092.16;;;6.89;58.72
75219;BME280;63801;49.414;19.474;2023-04-24T00:18:37;93092.50;;;6.88;58.87
75219;BME280;63801;49.414;19.474;2023-04-24T00:20:37;93089.41;;;6.86;58.76
75219;BME280;63801;49.414;19.474;2023-04-24T00:22:38;93082.03;;;6.83;59.08
75219;BME280;63801;49.414;19.474;2023-04-24T00:24:39;93076.56;;;6.79;58.96
75219;BME280;63801;49.414;19.474;2023-04-24T00:26:39;93070.78;;;6.77;59.20
75219;BME280;63801;49.414;19.474;2023-04-24T00:28:39;93072.13;;;6.71;58.86
75219;BME280;63801;49.414;19.474;2023-04-24T00:30:40;93077.41;;;6.67;58.92
75219;BME280;63801;49.414;19.474;2023-04-24T00:32:40;93071.50;;;6.62;59.19
75219;BME280;63801;49.414;19.474;2023-04-24T00:34:41;93048.22;;;6.50;59.32
75219;BME280;63801;49.414;19.474;2023-04-24T00:36:42;93055.66;;;6.57;59.46
75219;BME280;63801;49.414;19.474;2023-04-24T00:38:42;93059.81;;;6.54;59.46
75219;BME280;63801;49.414;19.474;2023-04-24T00:40:42;93059.38;;;6.52;59.85
75219;BME280;63801;49.414;19.474;2023-04-24T00:42:43;93056.25;;;6.50;59.68
75219;BME280;63801;49.414;19.474;2023-04-24T00:44:44;93050.78;;;6.47;59.87
75219;BME280;63801;49.414;19.474;2023-04-24T00:46:45;93050.34;;;6.45;59.76
75219;BME280;63801;49.414;19.474;2023-04-24T00:48:46;93031.75;;;6.36;60.16
75219;BME280;63801;49.414;19.474;2023-04-24T00:50:47;93045.56;;;6.38;61.74
75219;BME280;63801;49.414;19.474;2023-04-24T00:52:47;93041.34;;;6.37;60.63
75219;BME280;63801;49.414;19.474;2023-04-24T00:54:47;93050.50;;;6.36;61.29
75219;BME280;63801;49.414;19.474;2023-04-24T00:56:48;93044.25;;;6.32;61.06
75219;BME280;63801;49.414;19.474;2023-04-24T00:58:49;93042.25;;;6.29;61.00
75219;BME280;63801;49.414;19.474;2023-04-24T01:00:50;93044.50;;;6.27;61.10
75219;BME280;63801;49.414;19.474;2023-04-24T01:02:53;93032.56;;;6.24;61.12
75219;BME280;63801;49.414;19.474;2023-04-24T01:04:53;93043.63;;;6.23;61.20
75219;BME280;63801;49.414;19.474;2023-04-24T01:06:54;93041.59;;;6.20;61.89
75219;BME280;63801;49.414;19.474;2023-04-24T01:08:55;93032.34;;;6.17;61.48
75219;BME280;63801;49.414;19.474;2023-04-24T01:10:57;93033.38;;;6.13;61.13
75219;BME280;63801;49.414;19.474;2023-04-24T01:12:58;93031.38;;;6.10;61.40
75219;BME280;63801;49.414;19.474;2023-04-24T01:14:58;93037.84;;;6.09;61.09
75219;BME280;63801;49.414;19.474;2023-04-24T01:16:59;93033.59;;;6.08;61.46
75219;BME280;63801;49.414;19.474;2023-04-24T01:19:00;93028.16;;;6.04;61.39
75219;BME280;63801;49.414;19.474;2023-04-24T01:21:03;93036.50;;;6.03;61.38
75219;BME280;63801;49.414;19.474;2023-04-24T01:23:04;93033.41;;;6.01;61.28
75219;BME280;63801;49.414;19.474;2023-04-24T01:25:05;93030.94;;;5.96;61.44
75219;BME280;63801;49.414;19.474;2023-04-24T01:27:06;93026.94;;;5.90;61.75
75219;BME280;63801;49.414;19.474;2023-04-24T01:29:07;93023.34;;;5.85;61.59
75219;BME280;63801;49.414;19.474;2023-04-24T01:31:08;93025.13;;;5.81;61.53
75219;BME280;63801;49.414;19.474;2023-04-24T01:33:08;93022.69;;;5.76;61.43
75219;BME280;63801;49.414;19.474;2023-04-24T01:35:08;93021.78;;;5.72;61.79
75219;BME280;63801;49.414;19.474;2023-04-24T01:37:09;93014.00;;;5.67;61.98
75219;BME280;63801;49.414;19.474;2023-04-24T01:39:09;93023.81;;;5.63;61.68
75219;BME280;63801;49.414;19.474;2023-04-24T01:41:10;93022.50;;;5.57;61.79
75219;BME280;63801;49.414;19.474;2023-04-24T01:43:11;93012.44;;;5.54;61.80
75219;BME280;63801;49.414;19.474;2023-04-24T01:45:12;93012.78;;;5.53;62.14
75219;BME280;63801;49.414;19.474;2023-04-24T01:47:15;93008.88;;;5.50;62.46
75219;BME280;63801;49.414;19.474;2023-04-24T01:49:16;93003.44;;;5.47;62.36
75219;BME280;63801;49.414;19.474;2023-04-24T01:51:16;93011.56;;;5.50;62.27
75219;BME280;63801;49.414;19.474;2023-04-24T01:53:17;93007.31;;;5.49;62.32
75219;BME280;63801;49.414;19.474;2023-04-24T01:55:17;93008.09;;;5.50;62.39
75219;BME280;63801;49.414;19.474;2023-04-24T01:57:18;93005.88;;;5.52;62.50
75219;BME280;63801;49.414;19.474;2023-04-24T01:59:20;93005.22;;;5.55;62.41
75219;BME280;63801;49.414;19.474;2023-04-24T02:01:21;92991.16;;;5.58;62.40
75219;BME280;63801;49.414;19.474;2023-04-24T02:03:21;92996.97;;;5.60;62.44
75219;BME280;63801;49.414;19.474;2023-04-24T02:05:22;92992.41;;;5.60;62.26
75219;BME280;63801;49.414;19.474;2023-04-24T02:07:22;93003.97;;;5.64;62.37
75219;BME280;63801;49.414;19.474;2023-04-24T02:09:23;93000.19;;;5.65;62.52
75219;BME280;63801;49.414;19.474;2023-04-24T02:11:23;92993.28;;;5.64;62.68
75219;BME280;63801;49.414;19.474;2023-04-24T02:13:23;92984.81;;;5.62;62.50
75219;BME280;63801;49.414;19.474;2023-04-24T02:15:24;92990.84;;;5.59;62.36
75219;BME280;63801;49.414;19.474;2023-04-24T02:17:24;92991.63;;;5.60;62.63
75219;BME280;63801;49.414;19.474;2023-04-24T02:19:24;92977.47;;;5.59;62.47
75219;BME280;63801;49.414;19.474;2023-04-24T02:21:25;92978.56;;;5.58;62.50
75219;BME280;63801;49.414;19.474;2023-04-24T02:23:25;92983.59;;;5.60;62.90
75219;BME280;63801;49.414;19.474;2023-04-24T02:25:27;92977.47;;;5.59;62.68
75219;BME280;63801;49.414;19.474;2023-04-24T02:27:27;92970.91;;;5.57;62.52
75219;BME280;63801;49.414;19.474;2023-04-24T02:29:27;92980.13;;;5.59;62.64
75219;BME280;63801;49.414;19.474;2023-04-24T02:31:28;92973.22;;;5.58;62.46
75219;BME280;63801;49.414;19.474;2023-04-24T02:33:28;92963.31;;;5.59;62.46
75219;BME280;63801;49.414;19.474;2023-04-24T02:35:29;92968.25;;;5.57;62.89
75219;BME280;63801;49.414;19.474;2023-04-24T02:37:29;92967.88;;;5.58;62.49
75219;BME280;63801;49.414;19.474;2023-04-24T02:39:30;92968.34;;;5.60;62.49
75219;BME280;63801;49.414;19.474;2023-04-24T02:41:30;92963.00;;;5.60;62.73
75219;BME280;63801;49.414;19.474;2023-04-24T02:43:32;92957.75;;;5.64;62.46
75219;BME280;63801;49.414;19.474;2023-04-24T02:45:33;92963.19;;;5.67;62.46
75219;BME280;63801;49.414;19.474;2023-04-24T02:47:34;92949.41;;;5.65;62.60
75219;BME280;63801;49.414;19.474;2023-04-24T02:49:35;92955.41;;;5.74;62.84
75219;BME280;63801;49.414;19.474;2023-04-24T02:51:35;92957.84;;;5.79;62.79
75219;BME280;63801;49.414;19.474;2023-04-24T02:53:38;92955.59;;;5.81;62.37
75219;BME280;63801;49.414;19.474;2023-04-24T02:55:38;92954.81;;;5.81;62.28
75219;BME280;63801;49.414;19.474;2023-04-24T02:57:38;92956.72;;;5.80;62.46
75219;BME280;63801;49.414;19.474;2023-04-24T02:59:39;92954.72;;;5.77;62.58
75219;BME280;63801;49.414;19.474;2023-04-24T03:01:39;92958.41;;;5.73;62.93
75219;BME280;63801;49.414;19.474;2023-04-24T03:03:39;92956.06;;;5.71;62.75
75219;BME280;63801;49.414;19.474;2023-04-24T03:05:40;92942.94;;;5.66;62.77
75219;BME280;63801;49.414;19.474;2023-04-24T03:07:40;92954.53;;;5.70;62.96
75219;BME280;63801;49.414;19.474;2023-04-24T03:09:41;92947.28;;;5.71;63.05
75219;BME280;63801;49.414;19.474;2023-04-24T03:11:41;92944.59;;;5.71;62.91
75219;BME280;63801;49.414;19.474;2023-04-24T03:13:41;92945.38;;;5.71;62.86
75219;BME280;63801;49.414;19.474;2023-04-24T03:15:42;92956.84;;;5.72;62.75
75219;BME280;63801;49.414;19.474;2023-04-24T03:17:42;92944.25;;;5.72;63.13
75219;BME280;63801;49.414;19.474;2023-04-24T03:19:42;92939.69;;;5.73;63.02
75219;BME280;63801;49.414;19.474;2023-04-24T03:21:43;92940.78;;;5.72;62.77
75219;BME280;63801;49.414;19.474;2023-04-24T03:23:44;92932.34;;;5.70;63.39
75219;BME280;63801;49.414;19.474;2023-04-24T03:25:44;92940.38;;;5.70;63.69
75219;BME280;63801;49.414;19.474;2023-04-24T03:27:45;92931.56;;;5.69;63.43
75219;BME280;63801;49.414;19.474;2023-04-24T03:29:46;92936.59;;;5.71;63.14
75219;BME280;63801;49.414;19.474;2023-04-24T03:31:46;92930.09;;;5.72;63.63
75219;BME280;63801;49.414;19.474;2023-04-24T03:33:46;92937.78;;;5.73;63.60
75219;BME280;63801;49.414;19.474;2023-04-24T03:35:47;92932.53;;;5.77;63.70
75219;BME280;63801;49.414;19.474;2023-04-24T03:37:47;92933.09;;;5.82;63.25
75219;BME280;63801;49.414;19.474;2023-04-24T03:39:47;92935.56;;;5.88;63.56
75219;BME280;63801;49.414;19.474;2023-04-24T03:41:48;92939.53;;;5.94;63.74
75219;BME280;63801;49.414;19.474;2023-04-24T03:43:48;92927.97;;;6.02;63.81
75219;BME280;63801;49.414;19.474;2023-04-24T03:45:48;92938.00;;;6.20;63.77
75219;BME280;63801;49.414;19.474;2023-04-24T03:47:49;92933.59;;;6.40;63.64
75219;BME280;63801;49.414;19.474;2023-04-24T03:49:49;92939.59;;;6.65;63.63
75219;BME280;63801;49.414;19.474;2023-04-24T03:51:50;92936.00;;;6.89;63.41
75219;BME280;63801;49.414;19.474;2023-04-24T03:53:50;92935.94;;;7.16;62.90
75219;BME280;63801;49.414;19.474;2023-04-24T03:55:51;92941.59;;;7.46;62.66
75219;BME280;63801;49.414;19.474;2023-04-24T03:57:51;92936.00;;;7.71;62.42
75219;BME280;63801;49.414;19.474;2023-04-24T03:59:51;92936.63;;;7.99;62.32
75219;BME280;63801;49.414;19.474;2023-04-24T04:01:53;92930.47;;;8.33;61.95
75219;BME280;63801;49.414;19.474;2023-04-24T04:03:53;92921.94;;;8.70;61.43
75219;BME280;63801;49.414;19.474;2023-04-24T04:05:54;92933.31;;;9.05;61.46
75219;BME280;63801;49.414;19.474;2023-04-24T04:07:54;92929.25;;;9.37;61.07
75219;BME280;63801;49.414;19.474;2023-04-24T04:09:55;92931.28;;;9.70;60.82
75219;BME280;63801;49.414;19.474;2023-04-24T04:11:55;92920.19;;;10.02;60.55
75219;BME280;63801;49.414;19.474;2023-04-24T04:13:55;92925.56;;;10.28;60.37
75219;BME280;63801;49.414;19.474;2023-04-24T04:15:56;92926.38;;;10.62;59.74
75219;BME280;63801;49.414;19.474;2023-04-24T04:17:57;92930.63;;;11.00;59.52
75219;BME280;63801;49.414;19.474;2023-04-24T04:19:57;92921.69;;;11.36;59.34
75219;BME280;63801;49.414;19.474;2023-04-24T04:21:57;92925.88;;;11.74;58.75
75219;BME280;63801;49.414;19.474;2023-04-24T04:23:58;92929.47;;;11.96;58.06
75219;BME280;63801;49.414;19.474;2023-04-24T04:25:58;92922.22;;;12.07;57.91
75219;BME280;63801;49.414;19.474;2023-04-24T04:27:59;92917.31;;;12.27;57.51
75219;BME280;63801;49.414;19.474;2023-04-24T04:30:02;92921.66;;;12.45;56.80
75219;BME280;63801;49.414;19.474;2023-04-24T04:32:04;92924.78;;;12.58;56.68
75219;BME280;63801;49.414;19.474;2023-04-24T04:34:05;92912.88;;;12.70;56.33
75219;BME280;63801;49.414;19.474;2023-04-24T04:36:05;92907.47;;;12.73;56.38
75219;BME280;63801;49.414;19.474;2023-04-24T04:38:06;92900.94;;;12.88;56.03
75219;BME280;63801;49.414;19.474;2023-04-24T04:40:08;92903.34;;;13.22;55.27
75219;BME280;63801;49.414;19.474;2023-04-24T04:42:12;92912.25;;;13.40;55.09
75219;BME280;63801;49.414;19.474;2023-04-24T04:44:13;92904.53;;;13.60;54.69
75219;BME280;63801;49.414;19.474;2023-04-24T04:46:14;92911.88;;;13.87;54.02
75219;BME280;63801;49.414;19.474;2023-04-24T04:48:14;92902.50;;;14.24;54.04
75219;BME280;63801;49.414;19.474;2023-04-24T04:50:17;92895.81;;;14.64;53.72
75219;BME280;63801;49.414;19.474;2023-04-24T04:52:18;92896.03;;;14.98;52.63
75219;BME280;63801;49.414;19.474;2023-04-24T04:54:19;92907.50;;;15.23;52.38
75219;BME280;63801;49.414;19.474;2023-04-24T04:56:19;92912.16;;;15.26;52.11
75219;BME280;63801;49.414;19.474;2023-04-24T04:58:20;92898.97;;;15.24;52.19
75219;BME280;63801;49.414;19.474;2023-04-24T05:00:20;92900.03;;;15.38;51.84
75219;BME280;63801;49.414;19.474;2023-04-24T05:02:21;92903.84;;;15.51;51.87
75219;BME280;63801;49.414;19.474;2023-04-24T05:04:21;92902.59;;;15.62;51.93
75219;BME280;63801;49.414;19.474;2023-04-24T05:06:22;92905.09;;;15.91;51.48
75219;BME280;63801;49.414;19.474;2023-04-24T05:08:22;92900.44;;;16.29;51.16
75219;BME280;63801;49.414;19.474;2023-04-24T05:10:22;92890.84;;;16.54;50.46
75219;BME280;63801;49.414;19.474;2023-04-24T05:12:23;92885.69;;;16.67;49.96
75219;BME280;63801;49.414;19.474;2023-04-24T05:14:23;92888.84;;;16.92;49.61
75219;BME280;63801;49.414;19.474;2023-04-24T05:16:23;92881.94;;;17.15;49.60
75219;BME280;63801;49.414;19.474;2023-04-24T05:18:24;92888.22;;;17.38;48.73
75219;BME280;63801;49.414;19.474;2023-04-24T05:20:24;92887.72;;;17.74;48.28
75219;BME280;63801;49.414;19.474;2023-04-24T05:22:25;92882.44;;;18.10;48.17
75219;BME280;63801;49.414;19.474;2023-04-24T05:24:25;92881.78;;;18.45;47.29
75219;BME280;63801;49.414;19.474;2023-04-24T05:26:25;92881.13;;;18.80;47.08
75219;BME280;63801;49.414;19.474;2023-04-24T05:28:25;92874.66;;;19.10;46.04
75219;BME280;63801;49.414;19.474;2023-04-24T05:30:28;92879.22;;;19.33;45.93
75219;BME280;63801;49.414;19.474;2023-04-24T05:32:28;92889.03;;;19.50;45.67
75219;BME280;63801;49.414;19.474;2023-04-24T05:34:29;92879.53;;;19.71;45.25
75219;BME280;63801;49.414;19.474;2023-04-24T05:36:30;92891.00;;;19.98;44.95
75219;BME280;63801;49.414;19.474;2023-04-24T05:38:31;92881.94;;;20.17;43.81
75219;BME280;63801;49.414;19.474;2023-04-24T05:40:31;92883.47;;;20.35;43.74
75219;BME280;63801;49.414;19.474;2023-04-24T05:42:31;92882.22;;;20.52;43.73
75219;BME280;63801;49.414;19.474;2023-04-24T05:44:32;92882.41;;;20.74;42.71
75219;BME280;63801;49.414;19.474;2023-04-24T05:46:32;92874.91;;;20.90;42.25
75219;BME280;63801;49.414;19.474;2023-04-24T05:48:33;92880.28;;;20.94;41.87
75219;BME280;63801;49.414;19.474;2023-04-24T05:50:33;92872.94;;;20.91;41.89
75219;BME280;63801;49.414;19.474;2023-04-24T05:52:33;92869.19;;;21.14;40.97
75219;BME280;63801;49.414;19.474;2023-04-24T05:54:34;92870.09;;;21.36;40.90
75219;BME280;63801;49.414;19.474;2023-04-24T05:56:34;92878.31;;;21.48;40.08
75219;BME280;63801;49.414;19.474;2023-04-24T05:58:35;92873.25;;;21.47;40.87
75219;BME280;63801;49.414;19.474;2023-04-24T06:00:35;92866.34;;;21.42;40.62
75219;BME280;63801;49.414;19.474;2023-04-24T06:02:36;92871.50;;;20.86;40.47
75219;BME280;63801;49.414;19.474;2023-04-24T06:04:36;92874.03;;;20.19;41.02
75219;BME280;63801;49.414;19.474;2023-04-24T06:06:36;92858.78;;;19.57;41.87
75219;BME280;63801;49.414;19.474;2023-04-24T06:08:37;92865.75;;;19.06;42.18
75219;BME280;63801;49.414;19.474;2023-04-24T06:10:37;92865.88;;;18.99;42.43
75219;BME280;63801;49.414;19.474;2023-04-24T06:12:37;92863.94;;;19.36;42.30
75219;BME280;63801;49.414;19.474;2023-04-24T06:14:38;92865.00;;;19.74;42.17
75219;BME280;63801;49.414;19.474;2023-04-24T06:16:41;92867.41;;;20.04;42.12
75219;BME280;63801;49.414;19.474;2023-04-24T06:18:42;92857.84;;;20.41;41.69
75219;BME280;63801;49.414;19.474;2023-04-24T06:20:42;92869.03;;;20.76;41.65
75219;BME280;63801;49.414;19.474;2023-04-24T06:22:42;92852.91;;;21.06;41.05
75219;BME280;63801;49.414;19.474;2023-04-24T06:24:43;92861.31;;;21.41;40.56
75219;BME280;63801;49.414;19.474;2023-04-24T06:26:43;92848.69;;;21.81;40.09
75219;BME280;63801;49.414;19.474;2023-04-24T06:28:43;92851.13;;;22.26;39.52
75219;BME280;63801;49.414;19.474;2023-04-24T06:30:44;92843.97;;;22.63;39.71
75219;BME280;63801;49.414;19.474;2023-04-24T06:32:44;92844.88;;;23.04;39.59
75219;BME280;63801;49.414;19.474;2023-04-24T06:34:45;92845.69;;;23.35;39.09
75219;BME280;63801;49.414;19.474;2023-04-24T06:36:46;92838.47;;;23.59;39.05
75219;BME280;63801;49.414;19.474;2023-04-24T06:38:47;92839.19;;;23.91;38.23
75219;BME280;63801;49.414;19.474;2023-04-24T06:40:47;92837.06;;;24.04;37.32
75219;BME280;63801;49.414;19.474;2023-04-24T06:42:47;92842.44;;;23.98;37.62
75219;BME280;63801;49.414;19.474;2023-04-24T06:44:48;92831.88;;;23.57;37.88
75219;BME280;63801;49.414;19.474;2023-04-24T06:46:48;92831.72;;;22.99;38.52
75219;BME280;63801;49.414;19.474;2023-04-24T06:48:48;92839.72;;;22.28;39.08
75219;BME280;63801;49.414;19.474;2023-04-24T06:50:49;92828.28;;;21.57;39.28
75219;BME280;63801;49.414;19.474;2023-04-24T06:52:49;92830.63;;;20.92;39.59
75219;BME280;63801;49.414;19.474;2023-04-24T06:54:50;92835.81;;;20.32;40.12
75219;BME280;63801;49.414;19.474;2023-04-24T06:56:50;92837.25;;;19.76;40.46
75219;BME280;63801;49.414;19.474;2023-04-24T06:58:52;92835.41;;;19.20;40.88
75219;BME280;63801;49.414;19.474;2023-04-24T07:00:53;92821.06;;;18.61;41.78
75219;BME280;63801;49.414;19.474;2023-04-24T07:02:53;92821.50;;;18.16;42.24
75219;BME280;63801;49.414;19.474;2023-04-24T07:04:54;92825.34;;;17.76;42.93
75219;BME280;63801;49.414;19.474;2023-04-24T07:06:54;92825.25;;;17.33;43.40
75219;BME280;63801;49.414;19.474;2023-04-24T07:08:56;92823.25;;;17.10;43.93
75219;BME280;63801;49.414;19.474;2023-04-24T07:10:57;92825.09;;;16.90;44.17
75219;BME280;63801;49.414;19.474;2023-04-24T07:12:57;92830.78;;;16.72;44.71
75219;BME280;63801;49.414;19.474;2023-04-24T07:14:57;92833.00;;;16.50;44.94
75219;BME280;63801;49.414;19.474;2023-04-24T07:16:58;92822.34;;;16.29;45.45
75219;BME280;63801;49.414;19.474;2023-04-24T07:18:58;92826.41;;;16.14;45.63
75219;BME280;63801;49.414;19.474;2023-04-24T07:20:59;92819.94;;;16.01;45.93
75219;BME280;63801;49.414;19.474;2023-04-24T07:22:59;92815.78;;;15.89;46.27
75219;BME280;63801;49.414;19.474;2023-04-24T07:24:59;92815.47;;;15.84;46.60
75219;BME280;63801;49.414;19.474;2023-04-24T07:27:00;92822.50;;;15.78;46.81
75219;BME280;63801;49.414;19.474;2023-04-24T07:29:03;92829.59;;;15.68;47.04
75219;BME280;63801;49.414;19.474;2023-04-24T07:31:03;92819.53;;;15.65;47.31
75219;BME280;63801;49.414;19.474;2023-04-24T07:33:04;92817.94;;;15.67;47.56
75219;BME280;63801;49.414;19.474;2023-04-24T07:35:04;92817.00;;;15.85;48.10
75219;BME280;63801;49.414;19.474;2023-04-24T07:37:05;92825.06;;;16.29;48.33
75219;BME280;63801;49.414;19.474;2023-04-24T07:39:05;92815.44;;;16.85;48.18
75219;BME280;63801;49.414;19.474;2023-04-24T07:41:06;92817.06;;;17.60;47.30
75219;BME280;63801;49.414;19.474;2023-04-24T07:43:06;92809.75;;;18.00;46.45
75219;BME280;63801;49.414;19.474;2023-04-24T07:45:07;92812.06;;;18.21;46.33
75219;BME280;63801;49.414;19.474;2023-04-24T07:47:08;92810.25;;;18.34;45.29
75219;BME280;63801;49.414;19.474;2023-04-24T07:49:08;92801.50;;;18.42;46.01
75219;BME280;63801;49.414;19.474;2023-04-24T07:51:08;92810.81;;;18.65;45.70
75219;BME280;63801;49.414;19.474;2023-04-24T07:53:11;92811.59;;;18.85;45.76
75219;BME280;63801;49.414;19.474;2023-04-24T07:55:11;92809.78;;;18.95;45.10
75219;BME280;63801;49.414;19.474;2023-04-24T07:57:11;92802.13;;;18.90;45.40
75219;BME280;63801;49.414;19.474;2023-04-24T07:59:12;92809.03;;;18.94;44.90
75219;BME280;63801;49.414;19.474;2023-04-24T08:01:12;92810.00;;;19.04;45.13
75219;BME280;63801;49.414;19.474;2023-04-24T08:03:13;92802.00;;;19.29;45.15
75219;BME280;63801;49.414;19.474;2023-04-24T08:05:13;92802.97;;;19.55;45.06
75219;BME280;63801;49.414;19.474;2023-04-24T08:07:13;92798.63;;;19.73;44.57
75219;BME280;63801;49.414;19.474;2023-04-24T08:09:14;92793.53;;;19.88;43.95
75219;BME280;63801;49.414;19.474;2023-04-24T08:11:14;92794.16;;;19.96;43.63
75219;BME280;63801;49.414;19.474;2023-04-24T08:13:14;92790.97;;;19.97;43.26
75219;BME280;63801;49.414;19.474;2023-04-24T08:15:15;92791.06;;;19.94;43.14
75219;BME280;63801;49.414;19.474;2023-04-24T08:17:16;92788.41;;;19.90;43.02
75219;BME280;63801;49.414;19.474;2023-04-24T08:19:17;92785.69;;;19.90;43.16
75219;BME280;63801;49.414;19.474;2023-04-24T08:21:17;92784.66;;;19.84;43.12
75219;BME280;63801;49.414;19.474;2023-04-24T08:23:18;92784.69;;;19.68;42.81
75219;BME280;63801;49.414;19.474;2023-04-24T08:25:19;92775.13;;;19.60;43.17
75219;BME280;63801;49.414;19.474;2023-04-24T08:27:19;92786.59;;;19.55;42.55
75219;BME280;63801;49.414;19.474;2023-04-24T08:29:20;92785.63;;;19.45;42.68
75219;BME280;63801;49.414;19.474;2023-04-24T08:31:20;92781.06;;;19.39;42.71
75219;BME280;63801;49.414;19.474;2023-04-24T08:33:23;92783.97;;;19.32;42.78
75219;BME280;63801;49.414;19.474;2023-04-24T08:35:24;92784.66;;;19.19;42.65
75219;BME280;63801;49.414;19.474;2023-04-24T08:37:26;92783.22;;;19.15;42.87
75219;BME280;63801;49.414;19.474;2023-04-24T08:39:26;92789.28;;;19.22;42.86
75219;BME280;63801;49.414;19.474;2023-04-24T08:41:27;92780.66;;;19.24;42.65
75219;BME280;63801;49.414;19.474;2023-04-24T08:43:27;92795.09;;;19.24;42.47
75219;BME280;63801;49.414;19.474;2023-04-24T08:45:28;92779.94;;;19.04;42.19
75219;BME280;63801;49.414;19.474;2023-04-24T08:47:28;92784.53;;;18.91;42.60
75219;BME280;63801;49.414;19.474;2023-04-24T08:49:29;92781.53;;;18.85;42.33
75219;BME280;63801;49.414;19.474;2023-04-24T08:51:31;92772.00;;;18.57;41.89
75219;BME280;63801;49.414;19.474;2023-04-24T08:53:32;92773.94;;;18.37;42.16
75219;BME280;63801;49.414;19.474;2023-04-24T08:55:33;92754.72;;;18.05;42.44
75219;BME280;63801;49.414;19.474;2023-04-24T08:57:33;92766.59;;;17.94;42.48
75219;BME280;63801;49.414;19.474;2023-04-24T08:59:36;92764.31;;;17.70;42.66
75219;BME280;63801;49.414;19.474;2023-04-24T09:01:37;92769.00;;;17.69;42.96
75219;BME280;63801;49.414;19.474;2023-04-24T09:03:40;92773.03;;;17.61;43.21
75219;BME280;63801;49.414;19.474;2023-04-24T09:05:46;92785.19;;;17.53;43.47
75219;BME280;63801;49.414;19.474;2023-04-24T09:07:52;92776.78;;;17.44;43.17
75219;BME280;63801;49.414;19.474;2023-04-24T09:09:54;92771.09;;;17.35;43.62
75219;BME280;63801;49.414;19.474;2023-04-24T09:11:54;92769.69;;;17.27;43.84
75219;BME280;63801;49.414;19.474;2023-04-24T09:13:56;92755.00;;;17.21;44.12
75219;BME280;63801;49.414;19.474;2023-04-24T09:15:56;92785.28;;;16.99;44.12
75219;BME280;63801;49.414;19.474;2023-04-24T09:17:57;92770.81;;;16.79;44.24
75219;BME280;63801;49.414;19.474;2023-04-24T09:19:58;92778.75;;;16.67;44.47
75219;BME280;63801;49.414;19.474;2023-04-24T09:21:58;92780.81;;;16.55;45.03
75219;BME280;63801;49.414;19.474;2023-04-24T09:24:00;92776.66;;;16.47;45.35
75219;BME280;63801;49.414;19.474;2023-04-24T09:26:03;92772.97;;;16.31;45.14
75219;BME280;63801;49.414;19.474;2023-04-24T09:28:05;92775.81;;;16.20;45.53
75219;BME280;63801;49.414;19.474;2023-04-24T09:30:06;92782.47;;;16.19;45.88
75219;BME280;63801;49.414;19.474;2023-04-24T09:32:21;92782.47;;;16.19;46.14
75219;BME280;63801;49.414;19.474;2023-04-24T09:34:23;92778.91;;;16.22;46.00
75219;BME280;63801;49.414;19.474;2023-04-24T09:36:34;92788.34;;;16.14;45.94
75219;BME280;63801;49.414;19.474;2023-04-24T09:38:37;92785.41;;;15.98;45.98
75219;BME280;63801;49.414;19.474;2023-04-24T09:40:39;92784.47;;;15.78;46.13
75219;BME280;63801;49.414;19.474;2023-04-24T09:42:43;92792.22;;;15.76;46.54
75219;BME280;63801;49.414;19.474;2023-04-24T09:44:47;92775.97;;;15.72;46.76
75219;BME280;63801;49.414;19.474;2023-04-24T09:46:54;92786.44;;;15.73;46.71
75219;BME280;63801;49.414;19.474;2023-04-24T09:48:54;92781.00;;;15.73;47.08
75219;BME280;63801;49.414;19.474;2023-04-24T09:50:54;92804.69;;;15.73;46.93
75219;BME280;63801;49.414;19.474;2023-04-24T09:53:01;92788.78;;;15.71;46.89
75219;BME280;63801;49.414;19.474;2023-04-24T09:55:10;92781.09;;;15.66;46.94
75219;BME280;63801;49.414;19.474;2023-04-24T09:57:11;92806.44;;;15.53;47.40
75219;BME280;63801;49.414;19.474;2023-04-24T09:59:12;92787.88;;;15.44;47.85
75219;BME280;63801;49.414;19.474;2023-04-24T10:01:13;92793.00;;;15.35;47.74
75219;BME280;63801;49.414;19.474;2023-04-24T10:03:13;92788.44;;;15.21;48.04
75219;BME280;63801;49.414;19.474;2023-04-24T10:05:14;92789.69;;;15.10;48.31
75219;BME280;63801;49.414;19.474;2023-04-24T10:07:15;92771.97;;;14.95;48.89
75219;BME280;63801;49.414;19.474;2023-04-24T10:09:17;92779.84;;;14.82;50.32
75219;BME280;63801;49.414;19.474;2023-04-24T10:11:18;92784.50;;;14.74;51.03
75219;BME280;63801;49.414;19.474;2023-04-24T10:13:19;92784.56;;;14.67;51.33
75219;BME280;63801;49.414;19.474;2023-04-24T10:15:20;92800.13;;;14.60;50.96
75219;BME280;63801;49.414;19.474;2023-04-24T10:17:21;92812.19;;;14.48;50.45
75219;BME280;63801;49.414;19.474;2023-04-24T10:19:25;92789.38;;;14.38;50.73
75219;BME280;63801;49.414;19.474;2023-04-24T10:21:26;92792.06;;;14.35;50.85
75219;BME280;63801;49.414;19.474;2023-04-24T10:23:26;92806.44;;;14.28;50.90
75219;BME280;63801;49.414;19.474;2023-04-24T10:25:30;92807.63;;;14.24;51.08
75219;BME280;63801;49.414;19.474;2023-04-24T10:27:31;92786.38;;;14.08;51.05
75219;BME280;63801;49.414;19.474;2023-04-24T10:29:32;92813.13;;;14.06;51.23
75219;BME280;63801;49.414;19.474;2023-04-24T10:31:36;92798.81;;;13.91;51.56
75219;BME280;63801;49.414;19.474;2023-04-24T10:33:42;92812.00;;;13.89;51.95
75219;BME280;63801;49.414;19.474;2023-04-24T10:35:46;92822.47;;;13.80;52.32